sensor_id;sensor_type;location;lat;lon;timestamp;P1;durP1;ratioP1;P2;durP2;ratioP2
43523;SDS011;29120;52.006;6.020;2022-10-16T00:01:23;12.83;;;11.53;;
43523;SDS011;29120;52.006;6.020;2022-10-16T00:03:50;13.87;;;12.27;;
43523;SDS011;29120;52.006;6.020;2022-10-16T00:06:17;16.83;;;13.40;;
43523;SDS011;29120;52.006;6.020;2022-10-16T00:08:44;14.83;;;13.23;;
43523;SDS011;29120;52.006;6.020;2022-10-16T00:11:13;16.17;;;14.47;;
43523;SDS011;29120;52.006;6.020;2022-10-16T00:13:42;18.10;;;14.23;;
43523;SDS011;29120;52.006;6.020;2022-10-16T00:16:11;16.70;;;14.23;;
43523;SDS011;29120;52.006;6.020;2022-10-16T00:18:37;15.53;;;13.83;;
43523;SDS011;29120;52.006;6.020;2022-10-16T00:21:22;24.77;;;14.13;;
43523;SDS011;29120;52.006;6.020;2022-10-16T00:23:50;15.53;;;13.73;;
43523;SDS011;29120;52.006;6.020;2022-10-16T00:26:17;17.13;;;14.13;;
43523;SDS011;29120;52.006;6.020;2022-10-16T00:28:45;16.73;;;12.90;;
43523;SDS011;29120;52.006;6.020;2022-10-16T00:31:12;17.90;;;13.77;;
43523;SDS011;29120;52.006;6.020;2022-10-16T00:33:38;14.10;;;12.80;;
43523;SDS011;29120;52.006;6.020;2022-10-16T00:36:05;15.43;;;13.67;;
43523;SDS011;29120;52.006;6.020;2022-10-16T00:38:32;11.80;;;10.70;;
43523;SDS011;29120;52.006;6.020;2022-10-16T00:40:58;14.20;;;12.73;;
43523;SDS011;29120;52.006;6.020;2022-10-16T00:46:27;11.93;;;10.17;;
43523;SDS011;29120;52.006;6.020;2022-10-16T00:49:08;14.60;;;8.93;;
43523;SDS011;29120;52.006;6.020;2022-10-16T00:51:40;9.83;;;7.90;;
43523;SDS011;29120;52.006;6.020;2022-10-16T00:54:09;7.40;;;6.70;;
43523;SDS011;29120;52.006;6.020;2022-10-16T00:56:41;9.03;;;5.43;;
43523;SDS011;29120;52.006;6.020;2022-10-16T00:59:12;6.23;;;5.23;;
43523;SDS011;29120;52.006;6.020;2022-10-16T01:01:41;4.23;;;3.80;;
43523;SDS011;29120;52.006;6.020;2022-10-16T01:04:06;3.07;;;2.87;;
43523;SDS011;29120;52.006;6.020;2022-10-16T01:06:47;3.00;;;2.67;;
43523;SDS011;29120;52.006;6.020;2022-10-16T01:09:35;5.97;;;3.23;;
43523;SDS011;29120;52.006;6.020;2022-10-16T01:12:14;4.53;;;1.93;;
43523;SDS011;29120;52.006;6.020;2022-10-16T01:17:23;4.03;;;2.37;;
43523;SDS011;29120;52.006;6.020;2022-10-16T01:23:28;2.93;;;2.10;;
43523;SDS011;29120;52.006;6.020;2022-10-16T01:29:01;3.70;;;2.30;;
43523;SDS011;29120;52.006;6.020;2022-10-16T01:31:34;2.93;;;2.03;;
43523;SDS011;29120;52.006;6.020;2022-10-16T01:36:52;4.13;;;2.70;;
43523;SDS011;29120;52.006;6.020;2022-10-16T01:39:22;3.03;;;1.67;;
43523;SDS011;29120;52.006;6.020;2022-10-16T01:41:54;7.50;;;2.60;;
43523;SDS011;29120;52.006;6.020;2022-10-16T01:46:53;4.10;;;1.77;;
43523;SDS011;29120;52.006;6.020;2022-10-16T01:49:20;5.63;;;1.93;;
43523;SDS011;29120;52.006;6.020;2022-10-16T01:51:49;6.47;;;2.10;;
43523;SDS011;29120;52.006;6.020;2022-10-16T01:54:19;4.10;;;1.73;;
43523;SDS011;29120;52.006;6.020;2022-10-16T01:56:48;2.30;;;1.57;;
43523;SDS011;29120;52.006;6.020;2022-10-16T01:59:16;3.70;;;2.00;;
43523;SDS011;29120;52.006;6.020;2022-10-16T02:01:50;1.80;;;1.17;;
43523;SDS011;29120;52.006;6.020;2022-10-16T02:04:23;3.58;;;1.60;;
43523;SDS011;29120;52.006;6.020;2022-10-16T02:06:55;2.50;;;1.17;;
43523;SDS011;29120;52.006;6.020;2022-10-16T02:09:21;2.60;;;1.40;;
43523;SDS011;29120;52.006;6.020;2022-10-16T02:11:47;1.97;;;1.40;;
43523;SDS011;29120;52.006;6.020;2022-10-16T02:14:14;2.87;;;1.40;;
43523;SDS011;29120;52.006;6.020;2022-10-16T02:16:41;2.80;;;1.77;;
43523;SDS011;29120;52.006;6.020;2022-10-16T02:19:08;7.73;;;1.27;;
43523;SDS011;29120;52.006;6.020;2022-10-16T02:24:03;2.70;;;1.27;;
43523;SDS011;29120;52.006;6.020;2022-10-16T02:26:41;2.43;;;1.60;;
43523;SDS011;29120;52.006;6.020;2022-10-16T02:29:14;4.07;;;1.40;;
43523;SDS011;29120;52.006;6.020;2022-10-16T02:31:43;3.17;;;0.87;;
43523;SDS011;29120;52.006;6.020;2022-10-16T02:34:12;6.60;;;1.10;;
43523;SDS011;29120;52.006;6.020;2022-10-16T02:36:39;3.67;;;1.30;;
43523;SDS011;29120;52.006;6.020;2022-10-16T02:39:06;4.33;;;1.00;;
43523;SDS011;29120;52.006;6.020;2022-10-16T02:41:34;4.70;;;1.20;;
43523;SDS011;29120;52.006;6.020;2022-10-16T02:44:00;2.33;;;1.13;;
43523;SDS011;29120;52.006;6.020;2022-10-16T02:46:25;2.60;;;0.90;;
43523;SDS011;29120;52.006;6.020;2022-10-16T02:48:51;2.13;;;0.87;;
43523;SDS011;29120;52.006;6.020;2022-10-16T02:51:16;2.50;;;0.80;;
43523;SDS011;29120;52.006;6.020;2022-10-16T02:53:42;2.83;;;0.80;;
43523;SDS011;29120;52.006;6.020;2022-10-16T02:56:07;1.60;;;0.80;;
43523;SDS011;29120;52.006;6.020;2022-10-16T02:58:33;1.70;;;0.90;;
43523;SDS011;29120;52.006;6.020;2022-10-16T03:00:59;1.63;;;0.80;;
43523;SDS011;29120;52.006;6.020;2022-10-16T03:03:24;1.60;;;0.87;;
43523;SDS011;29120;52.006;6.020;2022-10-16T03:05:50;4.47;;;0.80;;
43523;SDS011;29120;52.006;6.020;2022-10-16T03:08:15;1.80;;;0.90;;
43523;SDS011;29120;52.006;6.020;2022-10-16T03:10:41;1.20;;;0.67;;
43523;SDS011;29120;52.006;6.020;2022-10-16T03:13:06;1.70;;;0.77;;
43523;SDS011;29120;52.006;6.020;2022-10-16T03:15:32;1.47;;;0.60;;
43523;SDS011;29120;52.006;6.020;2022-10-16T03:17:58;1.10;;;0.70;;
43523;SDS011;29120;52.006;6.020;2022-10-16T03:20:24;1.27;;;0.77;;
43523;SDS011;29120;52.006;6.020;2022-10-16T03:22:49;2.60;;;0.80;;
43523;SDS011;29120;52.006;6.020;2022-10-16T03:25:15;1.30;;;0.70;;
43523;SDS011;29120;52.006;6.020;2022-10-16T03:27:41;3.23;;;0.70;;
43523;SDS011;29120;52.006;6.020;2022-10-16T03:30:06;2.87;;;0.70;;
43523;SDS011;29120;52.006;6.020;2022-10-16T03:32:33;3.13;;;1.20;;
43523;SDS011;29120;52.006;6.020;2022-10-16T03:34:58;1.20;;;0.63;;
43523;SDS011;29120;52.006;6.020;2022-10-16T03:37:24;1.30;;;0.70;;
43523;SDS011;29120;52.006;6.020;2022-10-16T03:39:50;1.43;;;0.50;;
43523;SDS011;29120;52.006;6.020;2022-10-16T03:42:15;1.20;;;0.50;;
43523;SDS011;29120;52.006;6.020;2022-10-16T03:44:40;3.40;;;0.60;;
43523;SDS011;29120;52.006;6.020;2022-10-16T03:47:06;1.53;;;0.50;;
43523;SDS011;29120;52.006;6.020;2022-10-16T03:49:32;2.07;;;0.60;;
43523;SDS011;29120;52.006;6.020;2022-10-16T03:51:57;1.97;;;0.60;;
43523;SDS011;29120;52.006;6.020;2022-10-16T03:54:23;3.37;;;0.50;;
43523;SDS011;29120;52.006;6.020;2022-10-16T03:56:48;1.80;;;0.60;;
43523;SDS011;29120;52.006;6.020;2022-10-16T03:59:14;1.33;;;0.60;;
43523;SDS011;29120;52.006;6.020;2022-10-16T04:01:39;2.83;;;0.80;;
43523;SDS011;29120;52.006;6.020;2022-10-16T04:04:05;1.30;;;0.50;;
43523;SDS011;29120;52.006;6.020;2022-10-16T04:06:30;0.80;;;0.50;;
43523;SDS011;29120;52.006;6.020;2022-10-16T04:08:56;1.00;;;0.60;;
43523;SDS011;29120;52.006;6.020;2022-10-16T04:11:22;2.23;;;0.60;;
43523;SDS011;29120;52.006;6.020;2022-10-16T04:13:47;4.43;;;0.60;;
43523;SDS011;29120;52.006;6.020;2022-10-16T04:16:13;2.27;;;0.50;;
43523;SDS011;29120;52.006;6.020;2022-10-16T04:18:39;1.20;;;0.50;;
43523;SDS011;29120;52.006;6.020;2022-10-16T04:21:05;1.63;;;0.80;;
43523;SDS011;29120;52.006;6.020;2022-10-16T04:23:31;1.97;;;0.50;;
43523;SDS011;29120;52.006;6.020;2022-10-16T04:25:57;1.97;;;0.60;;
43523;SDS011;29120;52.006;6.020;2022-10-16T04:28:23;2.23;;;0.53;;
43523;SDS011;29120;52.006;6.020;2022-10-16T04:30:48;2.17;;;0.60;;
43523;SDS011;29120;52.006;6.020;2022-10-16T04:33:14;2.20;;;0.60;;
43523;SDS011;29120;52.006;6.020;2022-10-16T04:35:40;1.27;;;0.50;;
43523;SDS011;29120;52.006;6.020;2022-10-16T04:38:05;1.13;;;0.70;;
43523;SDS011;29120;52.006;6.020;2022-10-16T04:40:31;1.83;;;0.60;;
43523;SDS011;29120;52.006;6.020;2022-10-16T04:42:58;3.10;;;0.70;;
43523;SDS011;29120;52.006;6.020;2022-10-16T04:45:24;3.53;;;0.80;;
43523;SDS011;29120;52.006;6.020;2022-10-16T04:47:50;1.43;;;0.57;;
43523;SDS011;29120;52.006;6.020;2022-10-16T04:50:15;1.33;;;0.63;;
43523;SDS011;29120;52.006;6.020;2022-10-16T04:52:41;1.27;;;0.47;;
43523;SDS011;29120;52.006;6.020;2022-10-16T04:55:06;3.30;;;0.70;;
43523;SDS011;29120;52.006;6.020;2022-10-16T04:57:32;1.10;;;0.47;;
43523;SDS011;29120;52.006;6.020;2022-10-16T04:59:58;1.80;;;0.70;;
43523;SDS011;29120;52.006;6.020;2022-10-16T05:02:24;2.37;;;0.53;;
43523;SDS011;29120;52.006;6.020;2022-10-16T05:04:49;1.20;;;0.50;;
43523;SDS011;29120;52.006;6.020;2022-10-16T05:07:15;4.70;;;0.80;;
43523;SDS011;29120;52.006;6.020;2022-10-16T05:09:40;1.53;;;0.70;;
43523;SDS011;29120;52.006;6.020;2022-10-16T05:12:06;4.93;;;1.03;;
43523;SDS011;29120;52.006;6.020;2022-10-16T05:14:31;1.00;;;0.63;;
43523;SDS011;29120;52.006;6.020;2022-10-16T05:16:57;2.30;;;0.50;;
43523;SDS011;29120;52.006;6.020;2022-10-16T05:19:24;1.20;;;0.50;;
43523;SDS011;29120;52.006;6.020;2022-10-16T05:21:49;1.67;;;0.90;;
43523;SDS011;29120;52.006;6.020;2022-10-16T05:24:15;2.00;;;0.67;;
43523;SDS011;29120;52.006;6.020;2022-10-16T05:26:40;1.40;;;0.70;;
43523;SDS011;29120;52.006;6.020;2022-10-16T05:29:06;2.43;;;0.57;;
43523;SDS011;29120;52.006;6.020;2022-10-16T05:31:31;1.00;;;0.50;;
43523;SDS011;29120;52.006;6.020;2022-10-16T05:33:58;1.37;;;0.43;;
43523;SDS011;29120;52.006;6.020;2022-10-16T05:36:24;1.67;;;0.50;;
43523;SDS011;29120;52.006;6.020;2022-10-16T05:38:50;1.20;;;0.50;;
43523;SDS011;29120;52.006;6.020;2022-10-16T05:41:16;0.90;;;0.50;;
43523;SDS011;29120;52.006;6.020;2022-10-16T05:43:46;1.13;;;0.70;;
43523;SDS011;29120;52.006;6.020;2022-10-16T05:46:12;1.23;;;0.60;;
43523;SDS011;29120;52.006;6.020;2022-10-16T05:48:37;0.80;;;0.50;;
43523;SDS011;29120;52.006;6.020;2022-10-16T05:51:04;1.00;;;0.57;;
43523;SDS011;29120;52.006;6.020;2022-10-16T05:53:33;2.40;;;0.60;;
43523;SDS011;29120;52.006;6.020;2022-10-16T05:56:00;5.63;;;0.80;;
43523;SDS011;29120;52.006;6.020;2022-10-16T05:58:30;1.00;;;0.50;;
43523;SDS011;29120;52.006;6.020;2022-10-16T06:00:59;1.30;;;0.60;;
43523;SDS011;29120;52.006;6.020;2022-10-16T06:03:30;1.80;;;0.73;;
43523;SDS011;29120;52.006;6.020;2022-10-16T06:05:55;2.70;;;0.60;;
43523;SDS011;29120;52.006;6.020;2022-10-16T06:08:21;1.10;;;0.60;;
43523;SDS011;29120;52.006;6.020;2022-10-16T06:10:48;2.00;;;0.70;;
43523;SDS011;29120;52.006;6.020;2022-10-16T06:13:14;2.30;;;0.67;;
43523;SDS011;29120;52.006;6.020;2022-10-16T06:15:41;2.70;;;0.97;;
43523;SDS011;29120;52.006;6.020;2022-10-16T06:18:07;1.77;;;0.53;;
43523;SDS011;29120;52.006;6.020;2022-10-16T06:20:33;1.47;;;0.70;;
43523;SDS011;29120;52.006;6.020;2022-10-16T06:22:59;1.27;;;0.70;;
43523;SDS011;29120;52.006;6.020;2022-10-16T06:25:25;1.10;;;0.57;;
43523;SDS011;29120;52.006;6.020;2022-10-16T06:27:50;1.10;;;0.60;;
43523;SDS011;29120;52.006;6.020;2022-10-16T06:30:16;1.67;;;0.60;;
43523;SDS011;29120;52.006;6.020;2022-10-16T06:32:41;0.90;;;0.50;;
43523;SDS011;29120;52.006;6.020;2022-10-16T06:35:07;2.63;;;0.70;;
43523;SDS011;29120;52.006;6.020;2022-10-16T06:37:33;1.30;;;0.60;;
43523;SDS011;29120;52.006;6.020;2022-10-16T06:39:58;1.43;;;0.80;;
43523;SDS011;29120;52.006;6.020;2022-10-16T06:42:25;1.90;;;0.67;;
43523;SDS011;29120;52.006;6.020;2022-10-16T06:44:50;1.50;;;0.63;;
43523;SDS011;29120;52.006;6.020;2022-10-16T06:47:16;2.03;;;0.73;;
43523;SDS011;29120;52.006;6.020;2022-10-16T06:49:41;1.53;;;0.80;;
43523;SDS011;29120;52.006;6.020;2022-10-16T06:52:07;1.40;;;0.80;;
43523;SDS011;29120;52.006;6.020;2022-10-16T06:54:32;1.43;;;0.90;;
43523;SDS011;29120;52.006;6.020;2022-10-16T06:56:58;2.70;;;0.70;;
43523;SDS011;29120;52.006;6.020;2022-10-16T06:59:24;1.67;;;0.70;;
43523;SDS011;29120;52.006;6.020;2022-10-16T07:01:50;2.30;;;0.80;;
43523;SDS011;29120;52.006;6.020;2022-10-16T07:04:16;2.40;;;0.70;;
43523;SDS011;29120;52.006;6.020;2022-10-16T07:06:41;1.60;;;0.90;;
43523;SDS011;29120;52.006;6.020;2022-10-16T07:09:09;2.30;;;0.70;;
43523;SDS011;29120;52.006;6.020;2022-10-16T07:11:36;1.67;;;0.70;;
43523;SDS011;29120;52.006;6.020;2022-10-16T07:14:03;2.50;;;1.00;;
43523;SDS011;29120;52.006;6.020;2022-10-16T07:16:30;1.67;;;0.60;;
43523;SDS011;29120;52.006;6.020;2022-10-16T07:18:57;1.53;;;0.50;;
43523;SDS011;29120;52.006;6.020;2022-10-16T07:21:24;1.60;;;0.70;;
43523;SDS011;29120;52.006;6.020;2022-10-16T07:23:53;2.13;;;0.70;;
43523;SDS011;29120;52.006;6.020;2022-10-16T07:26:20;1.97;;;0.80;;
43523;SDS011;29120;52.006;6.020;2022-10-16T07:28:47;2.90;;;0.93;;
43523;SDS011;29120;52.006;6.020;2022-10-16T07:31:13;4.37;;;0.80;;
43523;SDS011;29120;52.006;6.020;2022-10-16T07:33:40;2.73;;;0.87;;
43523;SDS011;29120;52.006;6.020;2022-10-16T07:36:08;3.20;;;1.10;;
43523;SDS011;29120;52.006;6.020;2022-10-16T07:38:33;2.50;;;0.70;;
43523;SDS011;29120;52.006;6.020;2022-10-16T07:41:00;3.50;;;0.83;;
43523;SDS011;29120;52.006;6.020;2022-10-16T07:43:28;4.43;;;1.10;;
43523;SDS011;29120;52.006;6.020;2022-10-16T07:45:53;3.77;;;1.03;;
43523;SDS011;29120;52.006;6.020;2022-10-16T07:48:20;3.57;;;0.80;;
43523;SDS011;29120;52.006;6.020;2022-10-16T07:50:46;3.67;;;0.80;;
43523;SDS011;29120;52.006;6.020;2022-10-16T07:53:12;2.30;;;0.73;;
43523;SDS011;29120;52.006;6.020;2022-10-16T07:55:38;3.70;;;0.90;;
43523;SDS011;29120;52.006;6.020;2022-10-16T07:58:03;2.07;;;1.00;;
43523;SDS011;29120;52.006;6.020;2022-10-16T08:00:29;2.30;;;0.85;;
43523;SDS011;29120;52.006;6.020;2022-10-16T08:02:56;4.10;;;1.10;;
43523;SDS011;29120;52.006;6.020;2022-10-16T08:05:25;2.67;;;0.90;;
43523;SDS011;29120;52.006;6.020;2022-10-16T08:07:51;3.03;;;1.00;;
43523;SDS011;29120;52.006;6.020;2022-10-16T08:10:18;2.65;;;0.98;;
43523;SDS011;29120;52.006;6.020;2022-10-16T08:12:46;3.17;;;0.82;;
43523;SDS011;29120;52.006;6.020;2022-10-16T08:15:11;4.57;;;1.27;;
43523;SDS011;29120;52.006;6.020;2022-10-16T08:17:37;2.13;;;0.65;;
43523;SDS011;29120;52.006;6.020;2022-10-16T08:20:03;3.42;;;0.93;;
43523;SDS011;29120;52.006;6.020;2022-10-16T08:22:29;3.63;;;1.08;;
43523;SDS011;29120;52.006;6.020;2022-10-16T08:24:55;3.20;;;0.82;;
43523;SDS011;29120;52.006;6.020;2022-10-16T08:27:20;3.97;;;0.80;;
43523;SDS011;29120;52.006;6.020;2022-10-16T08:29:48;1.67;;;0.60;;
43523;SDS011;29120;52.006;6.020;2022-10-16T08:32:13;1.83;;;0.70;;
43523;SDS011;29120;52.006;6.020;2022-10-16T08:34:39;5.45;;;0.60;;
43523;SDS011;29120;52.006;6.020;2022-10-16T08:37:05;1.95;;;0.63;;
43523;SDS011;29120;52.006;6.020;2022-10-16T08:39:32;2.97;;;0.60;;
43523;SDS011;29120;52.006;6.020;2022-10-16T08:47:19;2.78;;;0.60;;
43523;SDS011;29120;52.006;6.020;2022-10-16T08:50:00;3.00;;;0.40;;
43523;SDS011;29120;52.006;6.020;2022-10-16T08:52:34;4.57;;;0.65;;
43523;SDS011;29120;52.006;6.020;2022-10-16T08:55:03;2.78;;;0.55;;
43523;SDS011;29120;52.006;6.020;2022-10-16T08:57:29;2.65;;;0.40;;
43523;SDS011;29120;52.006;6.020;2022-10-16T08:59:57;2.38;;;0.50;;
43523;SDS011;29120;52.006;6.020;2022-10-16T09:02:32;4.03;;;0.50;;
43523;SDS011;29120;52.006;6.020;2022-10-16T09:05:15;1.85;;;0.40;;
43523;SDS011;29120;52.006;6.020;2022-10-16T09:07:49;3.35;;;0.60;;
43523;SDS011;29120;52.006;6.020;2022-10-16T09:10:42;2.65;;;0.60;;
43523;SDS011;29120;52.006;6.020;2022-10-16T09:13:35;5.57;;;0.50;;
43523;SDS011;29120;52.006;6.020;2022-10-16T09:16:27;3.78;;;0.40;;
43523;SDS011;29120;52.006;6.020;2022-10-16T09:19:04;5.13;;;0.65;;
43523;SDS011;29120;52.006;6.020;2022-10-16T09:21:56;2.53;;;0.30;;
43523;SDS011;29120;52.006;6.020;2022-10-16T09:24:25;1.67;;;0.30;;
43523;SDS011;29120;52.006;6.020;2022-10-16T09:26:51;2.47;;;0.40;;
43523;SDS011;29120;52.006;6.020;2022-10-16T09:29:17;2.13;;;0.30;;
43523;SDS011;29120;52.006;6.020;2022-10-16T09:31:50;2.78;;;0.28;;
43523;SDS011;29120;52.006;6.020;2022-10-16T09:36:44;1.70;;;0.30;;
43523;SDS011;29120;52.006;6.020;2022-10-16T09:39:11;2.47;;;0.50;;
43523;SDS011;29120;52.006;6.020;2022-10-16T09:41:37;4.47;;;0.40;;
43523;SDS011;29120;52.006;6.020;2022-10-16T09:44:20;3.35;;;0.35;;
43523;SDS011;29120;52.006;6.020;2022-10-16T09:46:48;1.80;;;0.32;;
43523;SDS011;29120;52.006;6.020;2022-10-16T09:49:21;2.20;;;0.30;;
43523;SDS011;29120;52.006;6.020;2022-10-16T09:51:48;4.22;;;0.60;;
43523;SDS011;29120;52.006;6.020;2022-10-16T09:54:16;4.07;;;0.40;;
43523;SDS011;29120;52.006;6.020;2022-10-16T09:56:43;4.68;;;0.68;;
43523;SDS011;29120;52.006;6.020;2022-10-16T09:59:12;5.35;;;0.40;;
43523;SDS011;29120;52.006;6.020;2022-10-16T10:01:43;5.22;;;0.68;;
43523;SDS011;29120;52.006;6.020;2022-10-16T10:04:11;8.15;;;0.70;;
43523;SDS011;29120;52.006;6.020;2022-10-16T10:06:40;3.80;;;0.50;;
43523;SDS011;29120;52.006;6.020;2022-10-16T10:14:20;6.00;;;0.40;;
43523;SDS011;29120;52.006;6.020;2022-10-16T10:16:48;2.17;;;0.35;;
43523;SDS011;29120;52.006;6.020;2022-10-16T10:19:19;3.65;;;0.45;;
43523;SDS011;29120;52.006;6.020;2022-10-16T10:21:46;3.70;;;0.40;;
43523;SDS011;29120;52.006;6.020;2022-10-16T10:24:13;6.53;;;0.75;;
43523;SDS011;29120;52.006;6.020;2022-10-16T10:26:51;3.38;;;0.60;;
43523;SDS011;29120;52.006;6.020;2022-10-16T10:40:23;6.03;;;0.55;;
43523;SDS011;29120;52.006;6.020;2022-10-16T10:45:24;6.32;;;0.60;;
43523;SDS011;29120;52.006;6.020;2022-10-16T10:50:42;5.30;;;0.55;;
43523;SDS011;29120;52.006;6.020;2022-10-16T10:53:25;4.38;;;0.60;;
43523;SDS011;29120;52.006;6.020;2022-10-16T10:56:16;4.40;;;0.60;;
43523;SDS011;29120;52.006;6.020;2022-10-16T11:07:27;2.42;;;0.40;;
43523;SDS011;29120;52.006;6.020;2022-10-16T11:10:07;3.92;;;0.50;;
43523;SDS011;29120;52.006;6.020;2022-10-16T11:12:44;5.13;;;0.50;;
43523;SDS011;29120;52.006;6.020;2022-10-16T11:15:15;4.88;;;0.57;;
43523;SDS011;29120;52.006;6.020;2022-10-16T11:17:48;3.42;;;0.35;;
43523;SDS011;29120;52.006;6.020;2022-10-16T11:20:50;5.22;;;0.77;;
43523;SDS011;29120;52.006;6.020;2022-10-16T11:23:37;3.80;;;0.60;;
43523;SDS011;29120;52.006;6.020;2022-10-16T11:26:15;5.72;;;0.60;;
43523;SDS011;29120;52.006;6.020;2022-10-16T11:28:50;6.97;;;0.70;;
43523;SDS011;29120;52.006;6.020;2022-10-16T11:31:22;7.22;;;0.47;;
43523;SDS011;29120;52.006;6.020;2022-10-16T11:34:26;5.45;;;0.73;;
43523;SDS011;29120;52.006;6.020;2022-10-16T11:37:10;6.50;;;0.82;;
43523;SDS011;29120;52.006;6.020;2022-10-16T11:39:38;4.78;;;0.52;;
43523;SDS011;29120;52.006;6.020;2022-10-16T11:42:48;4.97;;;0.60;;
43523;SDS011;29120;52.006;6.020;2022-10-16T11:45:12;6.13;;;0.73;;
43523;SDS011;29120;52.006;6.020;2022-10-16T11:51:02;5.22;;;0.50;;
43523;SDS011;29120;52.006;6.020;2022-10-16T11:53:50;4.72;;;0.50;;
43523;SDS011;29120;52.006;6.020;2022-10-16T11:56:23;4.95;;;0.40;;
43523;SDS011;29120;52.006;6.020;2022-10-16T11:58:56;4.32;;;0.50;;
43523;SDS011;29120;52.006;6.020;2022-10-16T12:01:27;3.88;;;0.40;;
43523;SDS011;29120;52.006;6.020;2022-10-16T12:04:14;7.47;;;0.68;;
43523;SDS011;29120;52.006;6.020;2022-10-16T12:06:49;3.22;;;0.60;;
43523;SDS011;29120;52.006;6.020;2022-10-16T12:11:59;6.13;;;0.40;;
43523;SDS011;29120;52.006;6.020;2022-10-16T12:17:22;5.68;;;0.40;;
43523;SDS011;29120;52.006;6.020;2022-10-16T12:19:58;4.63;;;0.60;;
43523;SDS011;29120;52.006;6.020;2022-10-16T12:22:26;2.10;;;0.30;;
43523;SDS011;29120;52.006;6.020;2022-10-16T12:24:54;4.95;;;0.52;;
43523;SDS011;29120;52.006;6.020;2022-10-16T12:27:28;4.47;;;0.50;;
43523;SDS011;29120;52.006;6.020;2022-10-16T12:29:59;2.83;;;0.38;;
43523;SDS011;29120;52.006;6.020;2022-10-16T12:32:31;6.25;;;0.40;;
43523;SDS011;29120;52.006;6.020;2022-10-16T12:34:59;3.45;;;0.60;;
43523;SDS011;29120;52.006;6.020;2022-10-16T12:37:28;2.47;;;0.45;;
43523;SDS011;29120;52.006;6.020;2022-10-16T12:39:58;6.22;;;0.77;;
43523;SDS011;29120;52.006;6.020;2022-10-16T12:44:53;4.95;;;0.73;;
43523;SDS011;29120;52.006;6.020;2022-10-16T12:47:24;3.15;;;0.50;;
43523;SDS011;29120;52.006;6.020;2022-10-16T12:50:02;3.65;;;0.50;;
43523;SDS011;29120;52.006;6.020;2022-10-16T12:52:38;4.35;;;0.45;;
43523;SDS011;29120;52.006;6.020;2022-10-16T12:55:05;6.22;;;0.80;;
43523;SDS011;29120;52.006;6.020;2022-10-16T12:57:57;3.42;;;0.47;;
43523;SDS011;29120;52.006;6.020;2022-10-16T13:00:28;2.40;;;0.30;;
43523;SDS011;29120;52.006;6.020;2022-10-16T13:05:46;5.60;;;0.60;;
43523;SDS011;29120;52.006;6.020;2022-10-16T13:11:53;4.18;;;0.40;;
43523;SDS011;29120;52.006;6.020;2022-10-16T13:20:21;3.63;;;0.50;;
43523;SDS011;29120;52.006;6.020;2022-10-16T13:23:19;4.72;;;0.85;;
43523;SDS011;29120;52.006;6.020;2022-10-16T13:25:55;3.80;;;0.50;;
43523;SDS011;29120;52.006;6.020;2022-10-16T13:28:35;3.97;;;0.50;;
43523;SDS011;29120;52.006;6.020;2022-10-16T13:31:04;3.50;;;0.50;;
43523;SDS011;29120;52.006;6.020;2022-10-16T13:33:36;7.85;;;0.52;;
43523;SDS011;29120;52.006;6.020;2022-10-16T13:36:04;4.40;;;0.47;;
43523;SDS011;29120;52.006;6.020;2022-10-16T13:38:32;2.95;;;0.50;;
43523;SDS011;29120;52.006;6.020;2022-10-16T13:41:05;2.67;;;0.40;;
43523;SDS011;29120;52.006;6.020;2022-10-16T13:43:42;4.40;;;0.40;;
43523;SDS011;29120;52.006;6.020;2022-10-16T13:46:22;4.93;;;0.40;;
43523;SDS011;29120;52.006;6.020;2022-10-16T13:49:02;5.93;;;0.57;;
43523;SDS011;29120;52.006;6.020;2022-10-16T13:51:30;3.13;;;0.40;;
43523;SDS011;29120;52.006;6.020;2022-10-16T13:53:57;3.28;;;0.40;;
43523;SDS011;29120;52.006;6.020;2022-10-16T13:56:27;4.43;;;0.40;;
43523;SDS011;29120;52.006;6.020;2022-10-16T13:58:58;3.63;;;0.40;;
43523;SDS011;29120;52.006;6.020;2022-10-16T14:01:28;5.13;;;0.50;;
43523;SDS011;29120;52.006;6.020;2022-10-16T14:04:13;6.18;;;0.73;;
43523;SDS011;29120;52.006;6.020;2022-10-16T14:06:43;3.33;;;0.45;;
43523;SDS011;29120;52.006;6.020;2022-10-16T14:11:44;2.72;;;0.40;;
43523;SDS011;29120;52.006;6.020;2022-10-16T14:14:16;3.70;;;0.30;;
43523;SDS011;29120;52.006;6.020;2022-10-16T14:16:42;4.32;;;0.40;;
43523;SDS011;29120;52.006;6.020;2022-10-16T14:19:28;3.20;;;0.40;;
43523;SDS011;29120;52.006;6.020;2022-10-16T14:21:55;3.55;;;0.40;;
43523;SDS011;29120;52.006;6.020;2022-10-16T14:26:52;5.50;;;0.30;;
43523;SDS011;29120;52.006;6.020;2022-10-16T14:29:21;3.83;;;0.52;;
43523;SDS011;29120;52.006;6.020;2022-10-16T14:32:04;3.10;;;0.47;;
43523;SDS011;29120;52.006;6.020;2022-10-16T14:34:34;1.88;;;0.45;;
43523;SDS011;29120;52.006;6.020;2022-10-16T14:37:06;8.65;;;0.50;;
43523;SDS011;29120;52.006;6.020;2022-10-16T14:39:38;5.28;;;0.50;;
43523;SDS011;29120;52.006;6.020;2022-10-16T14:42:05;3.72;;;0.50;;
43523;SDS011;29120;52.006;6.020;2022-10-16T14:44:41;3.42;;;0.30;;
43523;SDS011;29120;52.006;6.020;2022-10-16T14:47:12;4.85;;;0.43;;
43523;SDS011;29120;52.006;6.020;2022-10-16T14:49:41;5.93;;;0.50;;
43523;SDS011;29120;52.006;6.020;2022-10-16T14:52:10;4.97;;;0.80;;
43523;SDS011;29120;52.006;6.020;2022-10-16T14:54:37;3.92;;;0.73;;
43523;SDS011;29120;52.006;6.020;2022-10-16T14:57:02;5.60;;;0.45;;
43523;SDS011;29120;52.006;6.020;2022-10-16T14:59:35;3.47;;;0.43;;
43523;SDS011;29120;52.006;6.020;2022-10-16T15:05:07;5.05;;;0.45;;
43523;SDS011;29120;52.006;6.020;2022-10-16T15:07:47;4.68;;;0.40;;
43523;SDS011;29120;52.006;6.020;2022-10-16T15:10:14;5.97;;;0.90;;
43523;SDS011;29120;52.006;6.020;2022-10-16T15:12:41;6.05;;;0.50;;
43523;SDS011;29120;52.006;6.020;2022-10-16T15:17:48;3.78;;;0.50;;
43523;SDS011;29120;52.006;6.020;2022-10-16T15:20:17;4.63;;;0.50;;
43523;SDS011;29120;52.006;6.020;2022-10-16T15:22:42;4.82;;;0.65;;
43523;SDS011;29120;52.006;6.020;2022-10-16T15:28:19;4.07;;;0.50;;
43523;SDS011;29120;52.006;6.020;2022-10-16T15:30:46;5.07;;;0.70;;
43523;SDS011;29120;52.006;6.020;2022-10-16T15:33:15;2.40;;;0.50;;
43523;SDS011;29120;52.006;6.020;2022-10-16T15:35:46;3.58;;;0.93;;
43523;SDS011;29120;52.006;6.020;2022-10-16T15:38:14;5.65;;;0.68;;
43523;SDS011;29120;52.006;6.020;2022-10-16T15:40:40;6.05;;;1.30;;
43523;SDS011;29120;52.006;6.020;2022-10-16T15:43:06;5.03;;;0.80;;
43523;SDS011;29120;52.006;6.020;2022-10-16T15:45:32;10.93;;;8.00;;
43523;SDS011;29120;52.006;6.020;2022-10-16T15:47:58;17.98;;;11.65;;
43523;SDS011;29120;52.006;6.020;2022-10-16T15:50:23;295.48;;;163.73;;
43523;SDS011;29120;52.006;6.020;2022-10-16T15:52:49;305.48;;;147.93;;
43523;SDS011;29120;52.006;6.020;2022-10-16T15:55:15;148.77;;;67.32;;
43523;SDS011;29120;52.006;6.020;2022-10-16T15:57:42;75.60;;;34.03;;
43523;SDS011;29120;52.006;6.020;2022-10-16T16:00:08;43.97;;;18.50;;
43523;SDS011;29120;52.006;6.020;2022-10-16T16:02:39;20.63;;;8.10;;
43523;SDS011;29120;52.006;6.020;2022-10-16T16:05:06;13.63;;;4.43;;
43523;SDS011;29120;52.006;6.020;2022-10-16T16:07:34;10.60;;;5.85;;
43523;SDS011;29120;52.006;6.020;2022-10-16T16:10:00;8.52;;;3.72;;
43523;SDS011;29120;52.006;6.020;2022-10-16T16:12:26;5.75;;;1.70;;
43523;SDS011;29120;52.006;6.020;2022-10-16T16:14:52;10.85;;;1.38;;
43523;SDS011;29120;52.006;6.020;2022-10-16T16:17:17;4.15;;;0.70;;
43523;SDS011;29120;52.006;6.020;2022-10-16T16:19:43;10.70;;;0.90;;
43523;SDS011;29120;52.006;6.020;2022-10-16T16:22:10;6.45;;;0.90;;
43523;SDS011;29120;52.006;6.020;2022-10-16T16:24:35;4.55;;;0.90;;
43523;SDS011;29120;52.006;6.020;2022-10-16T16:27:01;8.10;;;1.27;;
43523;SDS011;29120;52.006;6.020;2022-10-16T16:29:26;6.65;;;0.90;;
43523;SDS011;29120;52.006;6.020;2022-10-16T16:31:52;7.28;;;1.00;;
43523;SDS011;29120;52.006;6.020;2022-10-16T16:34:22;7.93;;;1.75;;